sensor_id;sensor_type;location;lat;lon;timestamp;temperature;humidity
20479;DHT22;10398;52.490;13.434;2023-06-22T00:01:53;22.90;99.90
20479;DHT22;10398;52.490;13.434;2023-06-22T00:04:18;22.80;99.90
20479;DHT22;10398;52.490;13.434;2023-06-22T00:06:44;22.80;99.90
20479;DHT22;10398;52.490;13.434;2023-06-22T00:09:10;22.80;99.90
20479;DHT22;10398;52.490;13.434;2023-06-22T00:11:37;22.80;99.90
20479;DHT22;10398;52.490;13.434;2023-06-22T00:14:03;22.90;99.90
20479;DHT22;10398;52.490;13.434;2023-06-22T00:16:29;22.90;99.90
20479;DHT22;10398;52.490;13.434;2023-06-22T00:18:55;22.90;99.90
20479;DHT22;10398;52.490;13.434;2023-06-22T00:21:20;22.80;99.90
20479;DHT22;10398;52.490;13.434;2023-06-22T00:23:46;22.60;99.90
20479;DHT22;10398;52.490;13.434;2023-06-22T00:26:13;22.60;99.90
20479;DHT22;10398;52.490;13.434;2023-06-22T00:28:39;22.70;99.90
20479;DHT22;10398;52.490;13.434;2023-06-22T00:31:04;22.70;99.90
20479;DHT22;10398;52.490;13.434;2023-06-22T00:33:30;22.80;99.90
20479;DHT22;10398;52.490;13.434;2023-06-22T00:35:56;22.80;99.90
20479;DHT22;10398;52.490;13.434;2023-06-22T00:38:22;22.70;99.90
20479;DHT22;10398;52.490;13.434;2023-06-22T00:40:48;22.60;99.90
20479;DHT22;10398;52.490;13.434;2023-06-22T00:43:14;22.50;99.90
20479;DHT22;10398;52.490;13.434;2023-06-22T00:45:39;22.50;99.90
20479;DHT22;10398;52.490;13.434;2023-06-22T00:48:06;22.50;99.90
20479;DHT22;10398;52.490;13.434;2023-06-22T00:50:33;22.50;99.90
20479;DHT22;10398;52.490;13.434;2023-06-22T00:53:07;22.40;99.90
20479;DHT22;10398;52.490;13.434;2023-06-22T00:55:43;22.40;99.90
20479;DHT22;10398;52.490;13.434;2023-06-22T00:58:11;22.30;99.90
20479;DHT22;10398;52.490;13.434;2023-06-22T01:00:38;22.30;99.90
20479;DHT22;10398;52.490;13.434;2023-06-22T01:03:04;22.20;99.90
20479;DHT22;10398;52.490;13.434;2023-06-22T01:05:34;22.20;99.90
20479;DHT22;10398;52.490;13.434;2023-06-22T01:08:08;22.30;99.90
20479;DHT22;10398;52.490;13.434;2023-06-22T01:10:48;22.20;99.90
20479;DHT22;10398;52.490;13.434;2023-06-22T01:13:45;22.20;99.90
20479;DHT22;10398;52.490;13.434;2023-06-22T01:16:24;22.10;99.90
20479;DHT22;10398;52.490;13.434;2023-06-22T01:18:53;22.20;99.90
20479;DHT22;10398;52.490;13.434;2023-06-22T01:21:22;22.20;99.90
20479;DHT22;10398;52.490;13.434;2023-06-22T01:24:27;22.20;99.90
20479;DHT22;10398;52.490;13.434;2023-06-22T01:29:55;22.30;99.90
20479;DHT22;10398;52.490;13.434;2023-06-22T01:32:30;22.30;99.90
20479;DHT22;10398;52.490;13.434;2023-06-22T01:34:58;22.20;99.90
20479;DHT22;10398;52.490;13.434;2023-06-22T01:37:25;22.20;99.90
20479;DHT22;10398;52.490;13.434;2023-06-22T01:39:52;22.20;99.90
20479;DHT22;10398;52.490;13.434;2023-06-22T01:42:19;22.30;99.90
20479;DHT22;10398;52.490;13.434;2023-06-22T01:44:45;22.40;99.90
20479;DHT22;10398;52.490;13.434;2023-06-22T01:47:11;22.40;99.90
20479;DHT22;10398;52.490;13.434;2023-06-22T01:49:40;22.40;99.90
20479;DHT22;10398;52.490;13.434;2023-06-22T01:52:07;22.30;99.90
20479;DHT22;10398;52.490;13.434;2023-06-22T01:54:32;22.30;99.90
20479;DHT22;10398;52.490;13.434;2023-06-22T01:56:58;22.40;99.90
20479;DHT22;10398;52.490;13.434;2023-06-22T01:59:34;22.40;99.90
20479;DHT22;10398;52.490;13.434;2023-06-22T02:02:05;22.40;99.90
20479;DHT22;10398;52.490;13.434;2023-06-22T02:04:47;22.50;99.90
20479;DHT22;10398;52.490;13.434;2023-06-22T02:07:15;22.40;99.90
20479;DHT22;10398;52.490;13.434;2023-06-22T02:09:46;22.40;99.90
20479;DHT22;10398;52.490;13.434;2023-06-22T02:12:18;22.30;99.90
20479;DHT22;10398;52.490;13.434;2023-06-22T02:14:45;22.30;99.90
20479;DHT22;10398;52.490;13.434;2023-06-22T02:17:12;22.40;99.90
20479;DHT22;10398;52.490;13.434;2023-06-22T02:19:41;22.40;99.90
20479;DHT22;10398;52.490;13.434;2023-06-22T02:22:07;22.40;99.90
20479;DHT22;10398;52.490;13.434;2023-06-22T02:24:32;22.30;99.90
20479;DHT22;10398;52.490;13.434;2023-06-22T02:26:59;22.30;99.90
20479;DHT22;10398;52.490;13.434;2023-06-22T02:29:26;22.30;99.90
20479;DHT22;10398;52.490;13.434;2023-06-22T02:31:53;22.20;99.90
20479;DHT22;10398;52.490;13.434;2023-06-22T02:34:18;22.20;99.90
20479;DHT22;10398;52.490;13.434;2023-06-22T02:36:46;22.10;99.90
20479;DHT22;10398;52.490;13.434;2023-06-22T02:39:23;22.00;99.90
20479;DHT22;10398;52.490;13.434;2023-06-22T02:41:53;22.00;99.90
20479;DHT22;10398;52.490;13.434;2023-06-22T02:44:20;21.90;99.90
20479;DHT22;10398;52.490;13.434;2023-06-22T02:46:47;21.90;99.90
20479;DHT22;10398;52.490;13.434;2023-06-22T02:49:12;21.90;99.90
20479;DHT22;10398;52.490;13.434;2023-06-22T02:51:41;22.00;99.90
20479;DHT22;10398;52.490;13.434;2023-06-22T02:54:07;22.00;99.90
20479;DHT22;10398;52.490;13.434;2023-06-22T02:56:33;22.10;99.90
20479;DHT22;10398;52.490;13.434;2023-06-22T02:58:58;22.10;99.90
20479;DHT22;10398;52.490;13.434;2023-06-22T03:01:27;22.20;99.90
20479;DHT22;10398;52.490;13.434;2023-06-22T03:03:53;22.20;99.90
20479;DHT22;10398;52.490;13.434;2023-06-22T03:06:20;22.30;99.90
20479;DHT22;10398;52.490;13.434;2023-06-22T03:08:49;22.30;99.90
20479;DHT22;10398;52.490;13.434;2023-06-22T03:11:15;22.30;99.90
20479;DHT22;10398;52.490;13.434;2023-06-22T03:13:41;22.30;99.90
20479;DHT22;10398;52.490;13.434;2023-06-22T03:16:06;22.30;99.90
20479;DHT22;10398;52.490;13.434;2023-06-22T03:18:32;22.40;99.90
20479;DHT22;10398;52.490;13.434;2023-06-22T03:20:58;22.30;99.90
20479;DHT22;10398;52.490;13.434;2023-06-22T03:23:24;22.30;99.90
20479;DHT22;10398;52.490;13.434;2023-06-22T03:25:49;22.30;99.90
20479;DHT22;10398;52.490;13.434;2023-06-22T03:28:15;22.30;99.90
20479;DHT22;10398;52.490;13.434;2023-06-22T03:30:41;22.30;99.90
20479;DHT22;10398;52.490;13.434;2023-06-22T03:33:06;22.30;99.90
20479;DHT22;10398;52.490;13.434;2023-06-22T03:35:32;22.20;99.90
20479;DHT22;10398;52.490;13.434;2023-06-22T03:37:57;22.20;99.90
20479;DHT22;10398;52.490;13.434;2023-06-22T03:40:23;22.10;99.90
20479;DHT22;10398;52.490;13.434;2023-06-22T03:42:49;22.00;99.90
20479;DHT22;10398;52.490;13.434;2023-06-22T03:45:14;22.10;99.90
20479;DHT22;10398;52.490;13.434;2023-06-22T03:47:40;22.00;99.90
20479;DHT22;10398;52.490;13.434;2023-06-22T03:50:06;22.10;99.90
20479;DHT22;10398;52.490;13.434;2023-06-22T03:52:32;22.20;99.90
20479;DHT22;10398;52.490;13.434;2023-06-22T03:54:58;22.30;99.90
20479;DHT22;10398;52.490;13.434;2023-06-22T03:57:23;22.30;99.90
20479;DHT22;10398;52.490;13.434;2023-06-22T03:59:49;22.30;99.90
20479;DHT22;10398;52.490;13.434;2023-06-22T04:02:15;22.20;99.90
20479;DHT22;10398;52.490;13.434;2023-06-22T04:04:40;22.30;99.90
20479;DHT22;10398;52.490;13.434;2023-06-22T04:07:06;22.20;99.90
20479;DHT22;10398;52.490;13.434;2023-06-22T04:09:32;22.20;99.90
20479;DHT22;10398;52.490;13.434;2023-06-22T04:11:57;22.10;99.90
20479;DHT22;10398;52.490;13.434;2023-06-22T04:14:23;22.10;99.90
20479;DHT22;10398;52.490;13.434;2023-06-22T04:16:48;22.10;99.90
20479;DHT22;10398;52.490;13.434;2023-06-22T04:19:14;22.00;99.90
20479;DHT22;10398;52.490;13.434;2023-06-22T04:21:43;21.90;99.90
20479;DHT22;10398;52.490;13.434;2023-06-22T04:24:14;21.80;99.90
20479;DHT22;10398;52.490;13.434;2023-06-22T04:26:40;21.80;99.90
20479;DHT22;10398;52.490;13.434;2023-06-22T04:29:07;21.90;99.90
20479;DHT22;10398;52.490;13.434;2023-06-22T04:31:34;21.90;99.90
20479;DHT22;10398;52.490;13.434;2023-06-22T04:34:04;21.90;99.90
20479;DHT22;10398;52.490;13.434;2023-06-22T04:36:38;21.70;99.90
20479;DHT22;10398;52.490;13.434;2023-06-22T04:39:08;21.60;99.90
20479;DHT22;10398;52.490;13.434;2023-06-22T04:41:36;21.60;99.90
20479;DHT22;10398;52.490;13.434;2023-06-22T04:44:08;21.60;99.90
20479;DHT22;10398;52.490;13.434;2023-06-22T04:46:34;21.70;99.90
20479;DHT22;10398;52.490;13.434;2023-06-22T04:49:04;21.70;99.90
20479;DHT22;10398;52.490;13.434;2023-06-22T04:51:32;21.80;99.90
20479;DHT22;10398;52.490;13.434;2023-06-22T04:53:58;21.80;99.90
20479;DHT22;10398;52.490;13.434;2023-06-22T04:56:26;21.90;99.90
20479;DHT22;10398;52.490;13.434;2023-06-22T04:58:54;21.90;99.90
20479;DHT22;10398;52.490;13.434;2023-06-22T05:01:22;22.00;99.90
20479;DHT22;10398;52.490;13.434;2023-06-22T05:03:48;22.00;99.90
20479;DHT22;10398;52.490;13.434;2023-06-22T05:06:14;22.10;99.90
20479;DHT22;10398;52.490;13.434;2023-06-22T05:08:40;22.20;99.90
20479;DHT22;10398;52.490;13.434;2023-06-22T05:11:05;22.20;99.90
20479;DHT22;10398;52.490;13.434;2023-06-22T05:13:32;22.20;99.90
20479;DHT22;10398;52.490;13.434;2023-06-22T05:15:58;22.20;99.90
20479;DHT22;10398;52.490;13.434;2023-06-22T05:18:30;22.20;99.90
20479;DHT22;10398;52.490;13.434;2023-06-22T05:20:58;22.20;99.90
20479;DHT22;10398;52.490;13.434;2023-06-22T05:23:24;22.20;99.90
20479;DHT22;10398;52.490;13.434;2023-06-22T05:25:51;22.30;99.90
20479;DHT22;10398;52.490;13.434;2023-06-22T05:28:17;22.20;99.90
20479;DHT22;10398;52.490;13.434;2023-06-22T05:30:48;22.20;99.90
20479;DHT22;10398;52.490;13.434;2023-06-22T05:33:13;22.30;99.90
20479;DHT22;10398;52.490;13.434;2023-06-22T05:35:39;22.30;99.90
20479;DHT22;10398;52.490;13.434;2023-06-22T05:38:05;22.20;99.90
20479;DHT22;10398;52.490;13.434;2023-06-22T05:40:30;22.30;99.90
20479;DHT22;10398;52.490;13.434;2023-06-22T05:42:56;22.30;99.90
20479;DHT22;10398;52.490;13.434;2023-06-22T05:45:21;22.40;99.90
20479;DHT22;10398;52.490;13.434;2023-06-22T05:47:47;22.40;99.90
20479;DHT22;10398;52.490;13.434;2023-06-22T05:50:13;22.40;99.90
20479;DHT22;10398;52.490;13.434;2023-06-22T05:52:38;22.50;99.90
20479;DHT22;10398;52.490;13.434;2023-06-22T05:55:04;22.50;99.90
20479;DHT22;10398;52.490;13.434;2023-06-22T05:57:30;22.60;99.90
20479;DHT22;10398;52.490;13.434;2023-06-22T05:59:56;22.60;99.90
20479;DHT22;10398;52.490;13.434;2023-06-22T06:02:21;22.50;99.90
20479;DHT22;10398;52.490;13.434;2023-06-22T06:04:47;22.40;99.90
20479;DHT22;10398;52.490;13.434;2023-06-22T06:07:13;22.40;99.90
20479;DHT22;10398;52.490;13.434;2023-06-22T06:09:38;22.20;99.90
20479;DHT22;10398;52.490;13.434;2023-06-22T06:12:04;22.10;99.90
20479;DHT22;10398;52.490;13.434;2023-06-22T06:14:30;22.10;99.90
20479;DHT22;10398;52.490;13.434;2023-06-22T06:16:55;22.20;99.90
20479;DHT22;10398;52.490;13.434;2023-06-22T06:19:21;22.30;99.90
20479;DHT22;10398;52.490;13.434;2023-06-22T06:21:47;22.30;99.90
20479;DHT22;10398;52.490;13.434;2023-06-22T06:24:12;22.40;99.90
20479;DHT22;10398;52.490;13.434;2023-06-22T06:26:38;22.40;99.90
20479;DHT22;10398;52.490;13.434;2023-06-22T06:29:04;22.50;99.90
20479;DHT22;10398;52.490;13.434;2023-06-22T06:31:30;22.70;99.90
20479;DHT22;10398;52.490;13.434;2023-06-22T06:33:56;22.70;99.90
20479;DHT22;10398;52.490;13.434;2023-06-22T06:36:21;22.80;99.90
20479;DHT22;10398;52.490;13.434;2023-06-22T06:38:47;22.90;99.90
20479;DHT22;10398;52.490;13.434;2023-06-22T06:41:15;22.90;99.90
20479;DHT22;10398;52.490;13.434;2023-06-22T06:43:41;22.90;99.90
20479;DHT22;10398;52.490;13.434;2023-06-22T06:46:10;22.90;99.90
20479;DHT22;10398;52.490;13.434;2023-06-22T06:48:36;23.00;99.90
20479;DHT22;10398;52.490;13.434;2023-06-22T06:51:02;23.00;99.90
20479;DHT22;10398;52.490;13.434;2023-06-22T06:53:27;23.10;99.90
20479;DHT22;10398;52.490;13.434;2023-06-22T06:55:54;23.20;99.90
20479;DHT22;10398;52.490;13.434;2023-06-22T06:58:19;23.10;99.90
20479;DHT22;10398;52.490;13.434;2023-06-22T07:00:45;23.10;99.90
20479;DHT22;10398;52.490;13.434;2023-06-22T07:03:11;23.10;99.90
20479;DHT22;10398;52.490;13.434;2023-06-22T07:05:37;23.20;99.90
20479;DHT22;10398;52.490;13.434;2023-06-22T07:08:03;23.10;99.90
20479;DHT22;10398;52.490;13.434;2023-06-22T07:10:29;23.10;99.90
20479;DHT22;10398;52.490;13.434;2023-06-22T07:12:54;23.10;99.90
20479;DHT22;10398;52.490;13.434;2023-06-22T07:15:20;23.10;99.90
20479;DHT22;10398;52.490;13.434;2023-06-22T07:17:46;23.20;99.90
20479;DHT22;10398;52.490;13.434;2023-06-22T07:20:12;23.30;99.90
20479;DHT22;10398;52.490;13.434;2023-06-22T07:22:39;23.50;99.90
20479;DHT22;10398;52.490;13.434;2023-06-22T07:25:05;23.50;99.90
20479;DHT22;10398;52.490;13.434;2023-06-22T07:27:38;23.60;99.90
20479;DHT22;10398;52.490;13.434;2023-06-22T07:30:09;23.70;99.90
20479;DHT22;10398;52.490;13.434;2023-06-22T07:32:35;23.70;99.90
20479;DHT22;10398;52.490;13.434;2023-06-22T07:35:00;23.80;99.90
20479;DHT22;10398;52.490;13.434;2023-06-22T07:37:27;23.90;99.90
20479;DHT22;10398;52.490;13.434;2023-06-22T07:39:53;23.90;99.90
20479;DHT22;10398;52.490;13.434;2023-06-22T07:42:26;24.00;99.90
20479;DHT22;10398;52.490;13.434;2023-06-22T07:44:53;24.10;99.90
20479;DHT22;10398;52.490;13.434;2023-06-22T07:47:19;24.10;99.90
20479;DHT22;10398;52.490;13.434;2023-06-22T07:49:46;24.10;99.90
20479;DHT22;10398;52.490;13.434;2023-06-22T07:52:11;24.20;99.90
20479;DHT22;10398;52.490;13.434;2023-06-22T07:54:38;24.30;99.90
20479;DHT22;10398;52.490;13.434;2023-06-22T07:57:04;24.30;99.90
20479;DHT22;10398;52.490;13.434;2023-06-22T07:59:30;24.40;99.90
20479;DHT22;10398;52.490;13.434;2023-06-22T08:01:55;24.40;99.90
20479;DHT22;10398;52.490;13.434;2023-06-22T08:04:21;24.50;99.90
20479;DHT22;10398;52.490;13.434;2023-06-22T08:06:47;24.50;99.90
20479;DHT22;10398;52.490;13.434;2023-06-22T08:09:16;24.50;99.90
20479;DHT22;10398;52.490;13.434;2023-06-22T08:11:43;24.50;99.90
20479;DHT22;10398;52.490;13.434;2023-06-22T08:14:09;24.50;99.90
20479;DHT22;10398;52.490;13.434;2023-06-22T08:16:35;24.50;99.90
20479;DHT22;10398;52.490;13.434;2023-06-22T08:19:00;24.50;99.90
20479;DHT22;10398;52.490;13.434;2023-06-22T08:21:26;24.50;99.90
20479;DHT22;10398;52.490;13.434;2023-06-22T08:23:52;24.60;99.90
20479;DHT22;10398;52.490;13.434;2023-06-22T08:26:17;24.60;99.90
20479;DHT22;10398;52.490;13.434;2023-06-22T08:28:43;24.60;99.90
20479;DHT22;10398;52.490;13.434;2023-06-22T08:31:09;24.60;99.90
20479;DHT22;10398;52.490;13.434;2023-06-22T08:33:35;24.70;99.90
20479;DHT22;10398;52.490;13.434;2023-06-22T08:36:01;24.70;99.90
20479;DHT22;10398;52.490;13.434;2023-06-22T08:38:26;24.70;99.90
20479;DHT22;10398;52.490;13.434;2023-06-22T08:40:52;24.70;99.90
20479;DHT22;10398;52.490;13.434;2023-06-22T08:43:17;24.80;99.90
20479;DHT22;10398;52.490;13.434;2023-06-22T08:45:44;24.80;99.90
20479;DHT22;10398;52.490;13.434;2023-06-22T08:48:09;24.80;99.90
20479;DHT22;10398;52.490;13.434;2023-06-22T08:50:35;24.90;99.90
20479;DHT22;10398;52.490;13.434;2023-06-22T08:53:01;24.90;99.90
20479;DHT22;10398;52.490;13.434;2023-06-22T08:55:26;24.90;99.90
20479;DHT22;10398;52.490;13.434;2023-06-22T08:57:52;25.00;99.90
20479;DHT22;10398;52.490;13.434;2023-06-22T09:00:18;25.00;99.90
20479;DHT22;10398;52.490;13.434;2023-06-22T09:02:46;25.00;99.90
20479;DHT22;10398;52.490;13.434;2023-06-22T09:05:12;25.00;99.90
20479;DHT22;10398;52.490;13.434;2023-06-22T09:07:38;25.10;99.90
20479;DHT22;10398;52.490;13.434;2023-06-22T09:10:04;25.20;99.90
20479;DHT22;10398;52.490;13.434;2023-06-22T09:12:30;25.30;99.90
20479;DHT22;10398;52.490;13.434;2023-06-22T09:14:56;25.40;99.90
20479;DHT22;10398;52.490;13.434;2023-06-22T09:17:22;25.50;99.90
20479;DHT22;10398;52.490;13.434;2023-06-22T09:19:48;25.50;99.90
20479;DHT22;10398;52.490;13.434;2023-06-22T09:22:14;25.50;99.90
20479;DHT22;10398;52.490;13.434;2023-06-22T09:24:40;25.50;99.90
20479;DHT22;10398;52.490;13.434;2023-06-22T09:27:05;25.60;99.90
20479;DHT22;10398;52.490;13.434;2023-06-22T09:29:31;25.50;99.90
20479;DHT22;10398;52.490;13.434;2023-06-22T09:31:59;25.50;99.90
20479;DHT22;10398;52.490;13.434;2023-06-22T09:34:25;25.50;99.90
20479;DHT22;10398;52.490;13.434;2023-06-22T09:36:51;25.50;99.90
20479;DHT22;10398;52.490;13.434;2023-06-22T09:39:18;25.50;99.90
20479;DHT22;10398;52.490;13.434;2023-06-22T09:41:44;25.50;99.90
20479;DHT22;10398;52.490;13.434;2023-06-22T09:44:10;25.60;99.90
20479;DHT22;10398;52.490;13.434;2023-06-22T09:46:35;25.60;99.90
20479;DHT22;10398;52.490;13.434;2023-06-22T09:49:01;25.70;99.90
20479;DHT22;10398;52.490;13.434;2023-06-22T09:51:26;25.60;99.90
20479;DHT22;10398;52.490;13.434;2023-06-22T09:53:53;25.70;99.90
20479;DHT22;10398;52.490;13.434;2023-06-22T09:56:21;25.70;99.90
20479;DHT22;10398;52.490;13.434;2023-06-22T09:58:47;25.70;99.90
20479;DHT22;10398;52.490;13.434;2023-06-22T10:01:15;25.70;99.90
20479;DHT22;10398;52.490;13.434;2023-06-22T10:03:41;25.80;99.90
20479;DHT22;10398;52.490;13.434;2023-06-22T10:06:07;25.80;99.90
20479;DHT22;10398;52.490;13.434;2023-06-22T10:08:34;25.80;99.90
20479;DHT22;10398;52.490;13.434;2023-06-22T10:11:00;25.80;99.90
20479;DHT22;10398;52.490;13.434;2023-06-22T10:13:26;25.80;99.90
20479;DHT22;10398;52.490;13.434;2023-06-22T10:15:52;25.90;99.90
20479;DHT22;10398;52.490;13.434;2023-06-22T10:18:18;26.00;99.90
20479;DHT22;10398;52.490;13.434;2023-06-22T10:20:49;26.10;99.90
20479;DHT22;10398;52.490;13.434;2023-06-22T10:23:18;26.20;99.90
20479;DHT22;10398;52.490;13.434;2023-06-22T10:25:44;26.30;99.90
20479;DHT22;10398;52.490;13.434;2023-06-22T10:28:10;26.40;99.90
20479;DHT22;10398;52.490;13.434;2023-06-22T10:30:35;26.50;99.90
20479;DHT22;10398;52.490;13.434;2023-06-22T10:33:04;26.60;99.90
20479;DHT22;10398;52.490;13.434;2023-06-22T10:35:30;26.70;99.90
20479;DHT22;10398;52.490;13.434;2023-06-22T10:37:56;26.60;99.90
20479;DHT22;10398;52.490;13.434;2023-06-22T10:40:21;26.60;99.90
20479;DHT22;10398;52.490;13.434;2023-06-22T10:42:47;26.60;99.90
20479;DHT22;10398;52.490;13.434;2023-06-22T10:45:12;26.70;99.90
20479;DHT22;10398;52.490;13.434;2023-06-22T10:47:39;26.80;99.90
20479;DHT22;10398;52.490;13.434;2023-06-22T10:50:05;26.90;99.90
20479;DHT22;10398;52.490;13.434;2023-06-22T10:52:31;27.00;99.90
20479;DHT22;10398;52.490;13.434;2023-06-22T10:54:57;27.10;99.90
20479;DHT22;10398;52.490;13.434;2023-06-22T10:57:23;27.10;99.90
20479;DHT22;10398;52.490;13.434;2023-06-22T10:59:49;27.20;99.90
20479;DHT22;10398;52.490;13.434;2023-06-22T11:02:14;27.30;99.90
20479;DHT22;10398;52.490;13.434;2023-06-22T11:04:40;27.50;99.90
20479;DHT22;10398;52.490;13.434;2023-06-22T11:07:06;27.60;99.90
20479;DHT22;10398;52.490;13.434;2023-06-22T11:09:32;27.70;99.90
20479;DHT22;10398;52.490;13.434;2023-06-22T11:11:57;27.70;99.90
20479;DHT22;10398;52.490;13.434;2023-06-22T11:14:24;27.70;99.90
20479;DHT22;10398;52.490;13.434;2023-06-22T11:16:50;27.80;99.90
20479;DHT22;10398;52.490;13.434;2023-06-22T11:19:16;27.90;99.90
20479;DHT22;10398;52.490;13.434;2023-06-22T11:21:41;27.90;99.90
20479;DHT22;10398;52.490;13.434;2023-06-22T11:24:07;27.90;99.90
20479;DHT22;10398;52.490;13.434;2023-06-22T11:26:33;27.80;99.90
20479;DHT22;10398;52.490;13.434;2023-06-22T11:28:59;27.80;99.90
20479;DHT22;10398;52.490;13.434;2023-06-22T11:31:25;27.90;99.90
20479;DHT22;10398;52.490;13.434;2023-06-22T11:33:50;27.80;99.90
20479;DHT22;10398;52.490;13.434;2023-06-22T11:36:16;27.90;99.90
20479;DHT22;10398;52.490;13.434;2023-06-22T11:38:42;27.90;99.90
20479;DHT22;10398;52.490;13.434;2023-06-22T11:41:09;27.90;99.90
20479;DHT22;10398;52.490;13.434;2023-06-22T11:43:36;27.80;99.90
20479;DHT22;10398;52.490;13.434;2023-06-22T11:46:05;27.90;99.90
20479;DHT22;10398;52.490;13.434;2023-06-22T11:48:31;28.00;99.90
20479;DHT22;10398;52.490;13.434;2023-06-22T11:50:57;28.10;99.90
20479;DHT22;10398;52.490;13.434;2023-06-22T11:53:25;28.10;99.90
20479;DHT22;10398;52.490;13.434;2023-06-22T11:55:51;28.30;99.90
20479;DHT22;10398;52.490;13.434;2023-06-22T11:58:19;28.20;99.90
20479;DHT22;10398;52.490;13.434;2023-06-22T12:00:44;28.30;99.90
20479;DHT22;10398;52.490;13.434;2023-06-22T12:03:10;28.30;99.90
20479;DHT22;10398;52.490;13.434;2023-06-22T12:05:37;28.40;99.90
20479;DHT22;10398;52.490;13.434;2023-06-22T12:08:03;28.40;99.90
20479;DHT22;10398;52.490;13.434;2023-06-22T12:10:29;28.50;99.90
20479;DHT22;10398;52.490;13.434;2023-06-22T12:12:55;28.50;99.90
20479;DHT22;10398;52.490;13.434;2023-06-22T12:15:23;28.40;99.90
20479;DHT22;10398;52.490;13.434;2023-06-22T12:17:48;28.30;99.90
20479;DHT22;10398;52.490;13.434;2023-06-22T12:20:16;28.10;99.90
20479;DHT22;10398;52.490;13.434;2023-06-22T12:22:41;28.20;99.90
20479;DHT22;10398;52.490;13.434;2023-06-22T12:25:08;28.20;99.90
20479;DHT22;10398;52.490;13.434;2023-06-22T12:27:35;28.20;99.90
20479;DHT22;10398;52.490;13.434;2023-06-22T12:30:01;28.00;99.90
20479;DHT22;10398;52.490;13.434;2023-06-22T12:32:26;28.10;99.90
20479;DHT22;10398;52.490;13.434;2023-06-22T12:34:52;28.20;99.90
20479;DHT22;10398;52.490;13.434;2023-06-22T12:37:18;28.40;99.90
20479;DHT22;10398;52.490;13.434;2023-06-22T12:39:44;28.60;99.90
20479;DHT22;10398;52.490;13.434;2023-06-22T12:42:10;28.70;99.90
20479;DHT22;10398;52.490;13.434;2023-06-22T12:44:38;28.80;99.90
20479;DHT22;10398;52.490;13.434;2023-06-22T12:47:04;28.90;99.90
20479;DHT22;10398;52.490;13.434;2023-06-22T12:49:29;28.90;99.90
20479;DHT22;10398;52.490;13.434;2023-06-22T12:51:55;29.00;99.90
20479;DHT22;10398;52.490;13.434;2023-06-22T12:54:21;28.90;99.90
20479;DHT22;10398;52.490;13.434;2023-06-22T12:56:46;28.80;99.90
20479;DHT22;10398;52.490;13.434;2023-06-22T12:59:12;28.70;99.90
20479;DHT22;10398;52.490;13.434;2023-06-22T13:01:38;28.80;99.90
20479;DHT22;10398;52.490;13.434;2023-06-22T13:04:04;28.80;99.90
20479;DHT22;10398;52.490;13.434;2023-06-22T13:06:30;28.70;99.90
20479;DHT22;10398;52.490;13.434;2023-06-22T13:08:56;28.80;99.90
20479;DHT22;10398;52.490;13.434;2023-06-22T13:11:21;28.60;99.90
20479;DHT22;10398;52.490;13.434;2023-06-22T13:13:47;28.60;99.90
20479;DHT22;10398;52.490;13.434;2023-06-22T13:16:13;28.70;99.90
20479;DHT22;10398;52.490;13.434;2023-06-22T13:18:38;28.80;99.90
20479;DHT22;10398;52.490;13.434;2023-06-22T13:21:04;28.90;99.90
20479;DHT22;10398;52.490;13.434;2023-06-22T13:23:30;28.90;99.90
20479;DHT22;10398;52.490;13.434;2023-06-22T13:25:57;29.00;99.90
20479;DHT22;10398;52.490;13.434;2023-06-22T13:28:23;29.00;99.90
20479;DHT22;10398;52.490;13.434;2023-06-22T13:30:48;29.10;99.90
20479;DHT22;10398;52.490;13.434;2023-06-22T13:33:14;29.10;99.90
20479;DHT22;10398;52.490;13.434;2023-06-22T13:35:40;29.20;99.90
20479;DHT22;10398;52.490;13.434;2023-06-22T13:38:08;29.30;99.90
20479;DHT22;10398;52.490;13.434;2023-06-22T13:40:34;29.30;99.90
20479;DHT22;10398;52.490;13.434;2023-06-22T13:43:00;29.40;99.90
20479;DHT22;10398;52.490;13.434;2023-06-22T13:45:26;29.50;99.90
20479;DHT22;10398;52.490;13.434;2023-06-22T13:47:51;29.50;99.90
20479;DHT22;10398;52.490;13.434;2023-06-22T13:50:17;29.60;99.90
20479;DHT22;10398;52.490;13.434;2023-06-22T13:52:43;29.60;99.90
20479;DHT22;10398;52.490;13.434;2023-06-22T13:55:09;29.60;99.90
20479;DHT22;10398;52.490;13.434;2023-06-22T13:57:35;29.60;99.90
20479;DHT22;10398;52.490;13.434;2023-06-22T14:00:01;29.60;99.90
20479;DHT22;10398;52.490;13.434;2023-06-22T14:02:27;29.60;99.90
20479;DHT22;10398;52.490;13.434;2023-06-22T14:04:53;29.50;99.90
20479;DHT22;10398;52.490;13.434;2023-06-22T14:07:19;29.50;99.90
20479;DHT22;10398;52.490;13.434;2023-06-22T14:09:46;29.20;99.90
20479;DHT22;10398;52.490;13.434;2023-06-22T14:12:12;28.80;99.90
20479;DHT22;10398;52.490;13.434;2023-06-22T14:14:38;29.10;99.90
20479;DHT22;10398;52.490;13.434;2023-06-22T14:17:04;29.30;99.90
20479;DHT22;10398;52.490;13.434;2023-06-22T14:19:30;29.50;99.90
20479;DHT22;10398;52.490;13.434;2023-06-22T14:21:56;29.60;99.90
20479;DHT22;10398;52.490;13.434;2023-06-22T14:24:22;29.80;99.90
20479;DHT22;10398;52.490;13.434;2023-06-22T14:26:48;29.80;99.90
20479;DHT22;10398;52.490;13.434;2023-06-22T14:29:14;29.80;99.50
20479;DHT22;10398;52.490;13.434;2023-06-22T14:31:44;29.90;99.50
20479;DHT22;10398;52.490;13.434;2023-06-22T14:34:10;29.90;99.60
20479;DHT22;10398;52.490;13.434;2023-06-22T14:36:36;29.90;99.30
20479;DHT22;10398;52.490;13.434;2023-06-22T14:39:01;29.90;99.20
20479;DHT22;10398;52.490;13.434;2023-06-22T14:41:27;29.80;98.90
20479;DHT22;10398;52.490;13.434;2023-06-22T14:43:53;29.90;99.50
20479;DHT22;10398;52.490;13.434;2023-06-22T14:46:19;30.00;99.40
20479;DHT22;10398;52.490;13.434;2023-06-22T14:48:45;30.10;99.10
20479;DHT22;10398;52.490;13.434;2023-06-22T14:51:11;30.10;99.30
20479;DHT22;10398;52.490;13.434;2023-06-22T14:53:37;30.20;98.60
20479;DHT22;10398;52.490;13.434;2023-06-22T14:56:03;30.10;98.60
20479;DHT22;10398;52.490;13.434;2023-06-22T14:58:32;30.10;98.40
20479;DHT22;10398;52.490;13.434;2023-06-22T15:01:04;30.10;98.50
20479;DHT22;10398;52.490;13.434;2023-06-22T15:03:31;30.00;98.10
20479;DHT22;10398;52.490;13.434;2023-06-22T15:05:58;30.00;98.10
20479;DHT22;10398;52.490;13.434;2023-06-22T15:08:24;30.00;98.00
20479;DHT22;10398;52.490;13.434;2023-06-22T15:10:50;30.00;98.00
20479;DHT22;10398;52.490;13.434;2023-06-22T15:13:16;29.90;98.10
20479;DHT22;10398;52.490;13.434;2023-06-22T15:15:43;29.90;98.00